LUKK/KIV METAR and TAF weather

Enter ICAO airport designator
Station Type Date Time Source
LUKK METAR 2022/01/29 13:30 UTC NOAA

LUKK 291330Z 35010KT CAVOK 03/M06 Q1019 TEMPO 33018G28KT


Station Type Date Time Source
LUKK Decoded METAR 2022/01/29 13:30 UTC NOAA

Chisinau International Airport, Moldova (LUKK) 46-55-40N 028-55-51E
Jan 29, 2022 - 08:30 AM EST / 2022.01.29 1330 UTC
Wind: from the N (350 degrees) at 12 MPH (10 KT):0
Visibility: greater than 7 mile(s):0
Temperature: 37 F (3 C)
Dew Point: 21 F (-6 C)
Relative Humidity: 51%
Pressure (altimeter): 30.09 in. Hg (1019 hPa)
ob: LUKK 291330Z 35010KT CAVOK 03/M06 Q1019 TEMPO 33018G28KT
cycle: 13

Station Type Date Time Source
LUKK TAF 2022/01/29 12:18 UTC NOAA

TAF LUKK 291120Z 2912/3012 32014KT 9999 BKN035
TEMPO 2912/2914 34018G28KT
BECMG 2915/2917 26008KT
BECMG 2920/2922 20012KT
TEMPO 3006/3009 3000 SN BKN010

Example: see airport list